Flight Track Log - Related Links

Times and Time Zones

All times are in EDT time to prevent confusion due to time zone crossing. See the SWA1245 flight status page for this flight to view local times or setup timezone preferences in your user account.

Time Position Orientation Groundspeed Altitude Reporting Facility
EDT Latitude Longitude Course Direction KTS MPH feet Rate Location/Type
Sat 08:14:28 PM 39.9136 -104.6814 54° Northeast 181 208 6,900  Level Denver Center
Sat 08:15:21 PM 39.9500 -104.6167 54° Northeast 240 276 8,100 1,646 Climbing Denver TRACON
Sat 08:16:21 PM 39.9500 -104.5000 90° East 322 371 10,000 992 Climbing Denver TRACON
Sat 08:17:22 PM 39.9500 -104.3833 90° East 346 398 10,100 1,043 Climbing Denver TRACON
Sat 08:18:16 PM 39.9667 -104.2500 81° East 401 461 12,000 2,444 Climbing Denver TRACON
Sat 08:19:37 PM 39.9819 -104.0569 84° East 413 475 15,600 2,577 Climbing Denver Center
Sat 08:20:38 PM 39.9989 -103.9039 82° East 425 489 18,100 2,341 Climbing Denver Center
Sat 08:21:40 PM 40.0261 -103.7428 78° East 456 525 20,400 2,049 Climbing Denver Center
Sat 08:22:41 PM 40.0503 -103.5958 78° East 460 529 22,300 2,195 Climbing Denver Center
Sat 08:23:43 PM 40.0836 -103.3886 78° East 486 559 24,900 2,341 Climbing Denver Center
Sat 08:24:44 PM 40.1114 -103.2125 78° East 494 568 27,100 2,244 Climbing Denver Center
Sat 08:25:46 PM 40.1386 -103.0386 78° East 490 564 29,500 2,244 Climbing Denver Center
Sat 08:26:47 PM 40.1650 -102.8708 78° East 476 548 31,700 1,902 Climbing Denver Center
Sat 08:27:49 PM 40.1911 -102.7036 78° East 471 542 33,400 1,561 Climbing Denver Center
Sat 08:28:50 PM 40.2197 -102.5250 78° East 469 540 34,900 1,317 Climbing Denver Center
Sat 08:29:52 PM 40.2581 -102.3700 72° East 469 540 36,100 1,024 Climbing Denver Center
Sat 08:30:53 PM 40.3017 -102.1878 73° East 470 541 37,000 439 Climbing Denver Center
Sat 08:31:55 PM 40.3394 -102.0258 73° East 484 557 37,000  Level Denver Center
Sat 08:32:56 PM 40.3831 -101.8436 73° East 470 541 37,000 439 Level Denver Center
Sat 08:33:58 PM 40.4225 -101.6892 71° East 467 537 37,900 634 Climbing Denver Center
Sat 08:34:59 PM 40.4581 -101.5347 73° East 465 535 38,300 341 Climbing Denver Center
Sat 08:36:01 PM 40.5008 -101.3450 73° East 486 559 38,600 244 Climbing Denver Center
Sat 08:37:02 PM 40.5328 -101.2064 73° East 495 570 38,800 197 Climbing Denver Center
Sat 08:38:03 PM 40.5839 -100.9789 73° East 509 586 39,000 98 Climbing Denver Center
Sat 08:39:05 PM 40.6222 -100.8103 73° East 509 586 39,000  Level Denver Center
Sat 08:40:06 PM 40.6650 -100.6150 74° East 506 582 39,000  Level Denver Center
Sat 08:41:07 PM 40.7031 -100.4467 73° East 507 583 39,000  Level Denver Center
Sat 08:42:09 PM 40.7467 -100.2506 74° East 504 580 39,000  Level Denver Center
Sat 08:43:10 PM 40.7842 -100.0800 74° East 507 583 39,000  Level Denver Center
Sat 08:44:11 PM 40.8217 -99.9083 74° East 510 587 39,000  Level Denver Center
Sat 08:45:13 PM 40.8642 -99.7125 74° East 518 596 39,000  Level Denver Center
Sat 08:46:14 PM 40.9036 -99.5289 74° East 520 598 39,000  Level Denver Center
Sat 08:47:15 PM 40.9425 -99.3431 74° East 524 603 39,000  Level Denver Center
Sat 08:48:17 PM 40.9811 -99.1578 75° East 524 603 39,000  Level Denver Center
Sat 08:49:18 PM 41.0211 -98.9642 75° East 525 604 39,000  Level Denver Center
Sat 08:50:19 PM 41.0636 -98.7547 75° East 526 605 39,000  Level Denver Center
Sat 08:51:21 PM 41.1022 -98.5719 74° East 530 610 39,000  Level Denver Center
Sat 08:52:49 PM 41.1550 -98.3108 75° East 527 606 39,000  Level Minneapolis Center
Sat 08:53:51 PM 41.1994 -98.0856 75° East 527 606 39,000  Level Minneapolis Center
Sat 08:54:52 PM 41.2372 -97.8967 75° East 529 609 39,000  Level Minneapolis Center
Sat 08:55:53 PM 41.2742 -97.7056 76° East 532 612 39,000  Level Minneapolis Center
Sat 08:56:55 PM 41.3114 -97.5153 75° East 534 615 39,000  Level Minneapolis Center
Sat 08:57:56 PM 41.3458 -97.3358 76° East 535 616 39,000  Level Minneapolis Center
Sat 08:58:57 PM 41.3828 -97.1428 76° East 537 618 39,000  Level Minneapolis Center
Sat 08:59:59 PM 41.4200 -96.9503 75° East 536 617 39,000  Level Minneapolis Center
Sat 09:01:00 PM 41.4628 -96.7189 76° East 535 616 39,000  Level Minneapolis Center
Sat 09:02:01 PM 41.4981 -96.5264 76° East 534 615 39,000  Level Minneapolis Center
Sat 09:03:02 PM 41.5319 -96.3381 76° East 534 615 39,000  Level Minneapolis Center
Sat 09:04:03 PM 41.5689 -96.1306 77° East 533 613 39,000  Level Minneapolis Center
Sat 09:05:05 PM 41.6039 -95.9389 76° East 531 611 39,000  Level Minneapolis Center
Sat 09:06:06 PM 41.6375 -95.7469 77° East 531 611 39,000  Level Minneapolis Center
Sat 09:07:07 PM 41.6711 -95.5525 77° East 533 613 39,000  Level Minneapolis Center
Sat 09:08:08 PM 41.7042 -95.3594 77° East 532 612 39,000  Level Minneapolis Center
Sat 09:09:09 PM 41.7378 -95.1672 77° East 531 611 39,000  Level Minneapolis Center
Sat 09:10:10 PM 41.7700 -94.9736 77° East 531 611 39,000  Level Minneapolis Center
Sat 09:11:11 PM 41.8006 -94.7800 78° East 532 612 39,000  Level Minneapolis Center
Sat 09:12:13 PM 41.8331 -94.5878 77° East 529 609 39,000  Level Minneapolis Center
Sat 09:13:14 PM 41.8650 -94.3942 77° East 531 611 39,000  Level Minneapolis Center
Sat 09:14:15 PM 41.8983 -94.1983 77° East 535 616 39,000  Level Minneapolis Center
Sat 09:15:16 PM 41.9272 -94.0028 79° East 535 616 39,000  Level Minneapolis Center
Sat 09:16:17 PM 41.9592 -93.8053 78° East 535 616 39,000  Level Minneapolis Center
Sat 09:17:18 PM 41.9903 -93.6086 78° East 539 620 39,000  Level Minneapolis Center
Sat 09:18:19 PM 42.0275 -93.3767 78° East 537 618 39,000  Level Minneapolis Center
Sat 09:19:21 PM 42.0567 -93.1839 78° East 534 615 39,000  Level Minneapolis Center
Sat 09:20:22 PM 42.0842 -92.9875 79° East 539 620 39,000  Level Minneapolis Center
Sat 09:21:24 PM 42.1136 -92.7947 78° East 534 615 39,000  Level Minneapolis Center
Sat 09:22:25 PM 42.1542 -92.6039 74° East 537 618 39,000  Level Minneapolis Center
Sat 09:23:26 PM 42.2017 -92.4147 71° East 539 620 39,000  Level Minneapolis Center
Sat 09:24:27 PM 42.2478 -92.2267 72° East 537 618 39,000  Level Minneapolis Center
Sat 09:25:28 PM 42.3011 -91.9972 72° East 540 621 39,000  Level Minneapolis Center
Sat 09:26:29 PM 42.3464 -91.8086 72° East 538 619 39,000  Level Minneapolis Center
Sat 09:27:30 PM 42.3903 -91.6200 72° East 537 618 39,000  Level Minneapolis Center
Sat 09:28:31 PM 42.4339 -91.4314 73° East 537 618 39,000  Level Minneapolis Center
Sat 09:29:32 PM 42.4778 -91.2419 73° East 538 619 39,000  Level Minneapolis Center
Sat 09:30:33 PM 42.5203 -91.0539 73° East 535 616 39,000  Level Minneapolis Center
Sat 09:31:34 PM 42.5722 -90.8267 73° East 534 615 39,000  Level Minneapolis Center
Sat 09:32:35 PM 42.6147 -90.6361 73° East 535 616 39,000  Level Minneapolis Center
Sat 09:33:50 PM 42.6664 -90.4081 73° East 533 613 39,000  Level Chicago Center
Sat 09:34:51 PM 42.7083 -90.2175 73° East 532 612 39,000  Level Chicago Center
Sat 09:35:53 PM 42.7519 -90.0269 73° East 533 613 39,000  Level Chicago Center
Sat 09:36:54 PM 42.7964 -89.8197 74° East 529 609 39,000  Level Chicago Center
Sat 09:37:55 PM 42.8372 -89.6281 74° East 530 610 39,000  Level Chicago Center
Sat 09:38:56 PM 42.8775 -89.4367 74° East 528 608 39,000  Level Chicago Center
Sat 09:39:57 PM 42.9178 -89.2450 74° East 526 605 39,000  Level Chicago Center
Sat 09:40:58 PM 42.9661 -89.0169 74° East 525 604 39,000  Level Chicago Center
Sat 09:41:59 PM 42.9814 -88.8231 84° East 515 593 39,000  Level Chicago Center
Sat 09:43:01 PM 42.9992 -88.6331 83° East 511 588 39,000  Level Chicago Center
Sat 09:44:01 PM 43.0147 -88.4436 84° East 508 585 39,000  Level Chicago Center
Sat 09:45:02 PM 43.0322 -88.2575 83° East 503 579 39,000  Level Chicago Center
Sat 09:46:03 PM 43.0472 -88.0706 84° East 501 577 39,000  Level Chicago Center
Sat 09:47:04 PM 43.0622 -87.8828 84° East 502 578 39,000  Level Chicago Center
Sat 09:48:05 PM 43.0783 -87.6975 83° East 497 572 39,000 -246 Level Chicago Center
Sat 09:49:06 PM 43.0928 -87.5111 84° East 497 572 38,500 -738 Descending Chicago Center
Sat 09:50:07 PM 43.1083 -87.3075 84° East 502 578 37,500 -934 Descending Chicago Center
Sat 09:51:08 PM 43.1239 -87.1144 84° East 510 587 36,600 -885 Descending Chicago Center
Sat 09:52:09 PM 43.1364 -86.9236 85° East 505 581 35,700 -934 Descending Chicago Center
Sat 09:53:10 PM 43.1236 -86.7378 95° East 492 566 34,700 -934 Descending Chicago Center
Sat 09:54:11 PM 43.1083 -86.5533 96° East 490 564 33,800 -934 Descending Chicago Center
Sat 09:55:12 PM 43.0931 -86.3697 96° East 488 562 32,800 -1,082 Descending Chicago Center
Sat 09:56:13 PM 43.0747 -86.1494 96° East 486 559 31,600 -984 Descending Chicago Center
Sat 09:57:14 PM 43.0603 -85.9967 97° East 486 559 30,800 -1,230 Descending Chicago Center
Sat 09:58:15 PM 43.0433 -85.8067 97° East 479 551 29,100 -1,805 Descending Chicago Center
Sat 09:59:17 PM 43.0289 -85.6389 97° East 454 522 27,100 -1,463 Descending Chicago Center
Sat 10:00:18 PM 43.0136 -85.4728 97° East 444 511 26,100 -1,082 Descending Chicago Center
Sat 10:01:19 PM 42.9953 -85.2769 97° East 435 501 24,900 -1,377 Descending Chicago Center
Sat 10:02:20 PM 42.9806 -85.1192 97° East 426 490 23,300 -934 Descending Chicago Center
Sat 10:03:21 PM 42.9658 -84.9647 97° East 415 478 23,000 -149 Descending Chicago Center
Sat 10:04:21 PM 42.9500 -84.8075 98° East 417 480 23,000  Level Chicago Center
Sat 10:05:22 PM 42.9339 -84.6417 98° East 434 499 23,000  Level Chicago Center
Sat 10:06:23 PM 42.9178 -84.4753 97° East 441 507 23,000 -1,046 Level Chicago Center
Sat 10:07:11 PM 42.9019 -84.3439 99° East 437 503 21,100 -2,202 Descending Cleveland Center
Sat 10:08:12 PM 42.8869 -84.1975 98° East 426 490 19,000 -2,377 Descending Cleveland Center
Sat 10:08:57 PM 42.8714 -84.0606 99° East 408 470 16,900 -2,262 Descending Cleveland Center
Sat 10:09:13 PM 42.8700 -84.0456 97° East 410 472 16,700 -2,333 Descending Cleveland Center
Sat 10:09:15 PM 42.8664 -84.0169 100° East 403 464 16,200 -2,300 Descending Cleveland Center
Sat 10:10:13 PM 42.8539 -83.8969 98° East 399 459 14,400 -2,262 Descending Cleveland Center
Sat 10:10:16 PM 42.8469 -83.8717 111° Southeast 385 443 13,900 -2,690 Descending Cleveland Center
Sat 10:11:11 PM 42.7783 -83.7872 138° Southeast 355 409 11,800 -1,966 Descending Cleveland Center
Sat 10:11:14 PM 42.7889 -83.7942 334° Northwest 375 432 12,000 -1,600 Climbing Cleveland Center
Sat 10:12:11 PM 42.7033 -83.7050 143° Southeast 342 394 10,200 -1,869 Descending Cleveland Center
Sat 10:12:15 PM 42.6969 -83.6986 144° Southeast 348 400 10,100 -1,031 Descending Cleveland Center
Sat 10:13:15 PM 42.6311 -83.6300 143° Southeast 306 352 9,100 -1,048 Descending Cleveland Center
Sat 10:13:18 PM 42.6278 -83.6258 137° Southeast 289 333 9,000 -1,377 Descending Cleveland Center
Sat 10:14:16 PM 42.5683 -83.5636 142° Southeast 290 334 7,700 -1,377 Descending Cleveland Center
Sat 10:14:19 PM 42.5636 -83.5625 170° South 285 328 7,600 -1,672 Descending Cleveland Center
Sat 10:15:17 PM 42.5053 -83.4983 141° Southeast 285 328 6,000 -1,700 Descending Cleveland Center
Sat 10:15:19 PM 42.5000 -83.4939 148° Southeast 285 328 5,900 -1,100 Descending Cleveland Center
Sat 10:16:17 PM 42.4428 -83.4358 143° Southeast 281 323 4,900 -1,082 Descending Cleveland Center
Sat 10:16:20 PM 42.4400 -83.4314 130° Southeast 265 305 4,800 -1,279 Descending Cleveland Center
Sat 10:17:18 PM 42.3861 -83.3753 142° Southeast 269 310 3,600 -1,300 Descending Cleveland Center
Sat 10:17:20 PM 42.3817 -83.3722 153° Southeast 261 300 3,500 -689 Descending Cleveland Center
Sat 10:18:19 PM 42.3319 -83.3200 142° Southeast 247 284 2,900 -689 Descending Cleveland Center
Sat 10:18:21 PM 42.3272 -83.3192 173° South 199 229 2,800 -600 Descending Cleveland Center
Sat 10:19:19 PM 42.2883 -83.3117 172° South 185 213 2,300 -590 Descending Cleveland Center
Sat 10:19:22 PM 42.2856 -83.3133 204° Southwest 130 150 2,200 -1,082 Descending Cleveland Center
Sat 10:20:20 PM 42.2569 -83.3292 202° Southwest 138 159 1,200 -1,000 Descending Cleveland Center
Sat 10:20:22 PM 42.2550 -83.3317 224° Southwest 126 145 1,200 -197 Level Cleveland Center
Sat 10:21:21 PM 42.2267 -83.3511 207° Southwest 130 150 1,000 -203 Descending Cleveland Center
Sat 10:23:00 PM 42.2124 -83.3534 154° Southeast  Level Estimated
Sat 10:30:00 PM 42.2124 -83.3534 154° Southeast  Level Estimated

Login

Don't have an account? Register now (free) for customized features, flight alerts, and more!